sensor_id;sensor_type;location;lat;lon;timestamp;P1;durP1;ratioP1;P2;durP2;ratioP2
36989;SDS011;22898;52.102;5.776;2023-05-07T00:00:36;3.17;;;1.73;;
36989;SDS011;22898;52.102;5.776;2023-05-07T00:03:02;2.17;;;1.88;;
36989;SDS011;22898;52.102;5.776;2023-05-07T00:05:28;4.68;;;1.80;;
36989;SDS011;22898;52.102;5.776;2023-05-07T00:07:54;2.38;;;1.45;;
36989;SDS011;22898;52.102;5.776;2023-05-07T00:10:20;3.95;;;1.55;;
36989;SDS011;22898;52.102;5.776;2023-05-07T00:12:45;1.40;;;1.30;;
36989;SDS011;22898;52.102;5.776;2023-05-07T00:15:11;1.85;;;1.48;;
36989;SDS011;22898;52.102;5.776;2023-05-07T00:17:37;2.38;;;1.85;;
36989;SDS011;22898;52.102;5.776;2023-05-07T00:20:03;1.35;;;1.23;;
36989;SDS011;22898;52.102;5.776;2023-05-07T00:22:32;1.50;;;1.40;;
36989;SDS011;22898;52.102;5.776;2023-05-07T00:24:57;1.83;;;1.48;;
36989;SDS011;22898;52.102;5.776;2023-05-07T00:27:24;1.80;;;1.50;;
36989;SDS011;22898;52.102;5.776;2023-05-07T00:29:50;1.73;;;1.50;;
36989;SDS011;22898;52.102;5.776;2023-05-07T00:32:15;2.50;;;1.33;;
36989;SDS011;22898;52.102;5.776;2023-05-07T00:34:42;2.72;;;1.75;;
36989;SDS011;22898;52.102;5.776;2023-05-07T00:37:08;1.40;;;1.30;;
36989;SDS011;22898;52.102;5.776;2023-05-07T00:39:34;2.55;;;1.67;;
36989;SDS011;22898;52.102;5.776;2023-05-07T00:42:00;8.02;;;1.73;;
36989;SDS011;22898;52.102;5.776;2023-05-07T00:44:26;2.33;;;1.45;;
36989;SDS011;22898;52.102;5.776;2023-05-07T00:46:51;2.85;;;1.75;;
36989;SDS011;22898;52.102;5.776;2023-05-07T00:49:17;1.27;;;1.17;;
36989;SDS011;22898;52.102;5.776;2023-05-07T00:51:44;1.95;;;1.58;;
36989;SDS011;22898;52.102;5.776;2023-05-07T00:54:10;1.65;;;1.30;;
36989;SDS011;22898;52.102;5.776;2023-05-07T00:56:36;1.88;;;1.35;;
36989;SDS011;22898;52.102;5.776;2023-05-07T00:59:02;2.42;;;1.60;;
36989;SDS011;22898;52.102;5.776;2023-05-07T01:01:28;1.80;;;1.55;;
36989;SDS011;22898;52.102;5.776;2023-05-07T01:03:53;1.45;;;1.30;;
36989;SDS011;22898;52.102;5.776;2023-05-07T01:06:19;3.22;;;1.83;;
36989;SDS011;22898;52.102;5.776;2023-05-07T01:08:47;1.55;;;1.40;;
36989;SDS011;22898;52.102;5.776;2023-05-07T01:11:13;1.77;;;1.40;;
36989;SDS011;22898;52.102;5.776;2023-05-07T01:13:39;1.40;;;1.30;;
36989;SDS011;22898;52.102;5.776;2023-05-07T01:16:06;2.00;;;1.75;;
36989;SDS011;22898;52.102;5.776;2023-05-07T01:18:33;1.95;;;1.52;;
36989;SDS011;22898;52.102;5.776;2023-05-07T01:20:59;1.92;;;1.70;;
36989;SDS011;22898;52.102;5.776;2023-05-07T01:23:29;2.97;;;1.75;;
36989;SDS011;22898;52.102;5.776;2023-05-07T01:25:55;2.50;;;1.50;;
36989;SDS011;22898;52.102;5.776;2023-05-07T01:28:21;1.17;;;1.08;;
36989;SDS011;22898;52.102;5.776;2023-05-07T01:30:49;2.78;;;1.85;;
36989;SDS011;22898;52.102;5.776;2023-05-07T01:33:19;2.90;;;1.55;;
36989;SDS011;22898;52.102;5.776;2023-05-07T01:35:49;1.60;;;1.50;;
36989;SDS011;22898;52.102;5.776;2023-05-07T01:38:17;4.18;;;2.00;;
36989;SDS011;22898;52.102;5.776;2023-05-07T01:40:44;1.30;;;1.20;;
36989;SDS011;22898;52.102;5.776;2023-05-07T01:43:10;7.70;;;1.77;;
36989;SDS011;22898;52.102;5.776;2023-05-07T01:45:35;1.98;;;1.58;;
36989;SDS011;22898;52.102;5.776;2023-05-07T01:48:02;1.80;;;1.40;;
36989;SDS011;22898;52.102;5.776;2023-05-07T01:50:32;4.75;;;2.88;;
36989;SDS011;22898;52.102;5.776;2023-05-07T01:52:59;1.95;;;1.60;;
36989;SDS011;22898;52.102;5.776;2023-05-07T01:55:27;1.27;;;1.17;;
36989;SDS011;22898;52.102;5.776;2023-05-07T01:57:52;2.13;;;1.30;;
36989;SDS011;22898;52.102;5.776;2023-05-07T02:00:18;1.73;;;1.50;;
36989;SDS011;22898;52.102;5.776;2023-05-07T02:02:44;2.08;;;1.60;;
36989;SDS011;22898;52.102;5.776;2023-05-07T02:05:10;2.42;;;1.98;;
36989;SDS011;22898;52.102;5.776;2023-05-07T02:07:35;2.60;;;1.92;;
36989;SDS011;22898;52.102;5.776;2023-05-07T02:10:01;2.42;;;1.77;;
36989;SDS011;22898;52.102;5.776;2023-05-07T02:12:27;3.65;;;1.90;;
36989;SDS011;22898;52.102;5.776;2023-05-07T02:14:53;2.25;;;1.80;;
36989;SDS011;22898;52.102;5.776;2023-05-07T02:17:18;4.35;;;2.30;;
36989;SDS011;22898;52.102;5.776;2023-05-07T02:19:44;2.92;;;2.00;;
36989;SDS011;22898;52.102;5.776;2023-05-07T02:22:10;3.45;;;1.92;;
36989;SDS011;22898;52.102;5.776;2023-05-07T02:24:35;1.75;;;1.63;;
36989;SDS011;22898;52.102;5.776;2023-05-07T02:27:01;1.38;;;1.23;;
36989;SDS011;22898;52.102;5.776;2023-05-07T02:29:28;4.53;;;3.28;;
36989;SDS011;22898;52.102;5.776;2023-05-07T02:31:54;1.63;;;1.52;;
36989;SDS011;22898;52.102;5.776;2023-05-07T02:34:20;5.38;;;2.45;;
36989;SDS011;22898;52.102;5.776;2023-05-07T02:36:46;1.92;;;1.75;;
36989;SDS011;22898;52.102;5.776;2023-05-07T02:39:12;1.67;;;1.50;;
36989;SDS011;22898;52.102;5.776;2023-05-07T02:41:38;3.13;;;2.45;;
36989;SDS011;22898;52.102;5.776;2023-05-07T02:44:04;2.95;;;2.55;;
36989;SDS011;22898;52.102;5.776;2023-05-07T02:46:30;2.85;;;2.13;;
36989;SDS011;22898;52.102;5.776;2023-05-07T02:48:56;2.50;;;1.75;;
36989;SDS011;22898;52.102;5.776;2023-05-07T02:51:22;1.92;;;1.27;;
36989;SDS011;22898;52.102;5.776;2023-05-07T02:53:48;2.42;;;1.80;;
36989;SDS011;22898;52.102;5.776;2023-05-07T02:56:14;2.30;;;1.35;;
36989;SDS011;22898;52.102;5.776;2023-05-07T02:58:40;2.17;;;1.50;;
36989;SDS011;22898;52.102;5.776;2023-05-07T03:01:07;2.88;;;1.92;;
36989;SDS011;22898;52.102;5.776;2023-05-07T03:03:32;2.85;;;1.80;;
36989;SDS011;22898;52.102;5.776;2023-05-07T03:05:58;1.63;;;1.52;;
36989;SDS011;22898;52.102;5.776;2023-05-07T03:08:24;3.17;;;2.22;;
36989;SDS011;22898;52.102;5.776;2023-05-07T03:10:49;2.72;;;1.98;;
36989;SDS011;22898;52.102;5.776;2023-05-07T03:13:15;2.00;;;1.80;;
36989;SDS011;22898;52.102;5.776;2023-05-07T03:15:41;3.03;;;1.83;;
36989;SDS011;22898;52.102;5.776;2023-05-07T03:18:06;3.90;;;2.00;;
36989;SDS011;22898;52.102;5.776;2023-05-07T03:20:32;2.38;;;1.95;;
36989;SDS011;22898;52.102;5.776;2023-05-07T03:22:57;2.53;;;1.80;;
36989;SDS011;22898;52.102;5.776;2023-05-07T03:25:23;1.80;;;1.58;;
36989;SDS011;22898;52.102;5.776;2023-05-07T03:27:49;4.25;;;2.25;;
36989;SDS011;22898;52.102;5.776;2023-05-07T03:30:14;3.88;;;1.85;;
36989;SDS011;22898;52.102;5.776;2023-05-07T03:32:40;2.35;;;1.50;;
36989;SDS011;22898;52.102;5.776;2023-05-07T03:35:06;3.33;;;2.28;;
36989;SDS011;22898;52.102;5.776;2023-05-07T03:37:32;3.15;;;2.30;;
36989;SDS011;22898;52.102;5.776;2023-05-07T03:39:57;3.63;;;2.60;;
36989;SDS011;22898;52.102;5.776;2023-05-07T03:42:23;5.22;;;2.10;;
36989;SDS011;22898;52.102;5.776;2023-05-07T03:44:49;4.35;;;2.50;;
36989;SDS011;22898;52.102;5.776;2023-05-07T03:47:14;3.95;;;2.08;;
36989;SDS011;22898;52.102;5.776;2023-05-07T03:49:40;2.28;;;1.83;;
36989;SDS011;22898;52.102;5.776;2023-05-07T03:52:06;3.05;;;2.10;;
36989;SDS011;22898;52.102;5.776;2023-05-07T03:54:31;7.07;;;2.83;;
36989;SDS011;22898;52.102;5.776;2023-05-07T03:56:57;1.95;;;1.60;;
36989;SDS011;22898;52.102;5.776;2023-05-07T03:59:23;4.13;;;2.70;;
36989;SDS011;22898;52.102;5.776;2023-05-07T04:01:48;3.50;;;2.63;;
36989;SDS011;22898;52.102;5.776;2023-05-07T04:04:15;2.47;;;2.03;;
36989;SDS011;22898;52.102;5.776;2023-05-07T04:06:41;3.30;;;2.47;;
36989;SDS011;22898;52.102;5.776;2023-05-07T04:09:06;7.70;;;2.65;;
36989;SDS011;22898;52.102;5.776;2023-05-07T04:11:32;3.08;;;2.60;;
36989;SDS011;22898;52.102;5.776;2023-05-07T04:13:58;5.22;;;3.80;;
36989;SDS011;22898;52.102;5.776;2023-05-07T04:16:23;4.70;;;3.28;;
36989;SDS011;22898;52.102;5.776;2023-05-07T04:18:49;4.03;;;3.00;;
36989;SDS011;22898;52.102;5.776;2023-05-07T04:21:15;3.78;;;2.50;;
36989;SDS011;22898;52.102;5.776;2023-05-07T04:23:41;4.18;;;2.72;;
36989;SDS011;22898;52.102;5.776;2023-05-07T04:26:07;3.60;;;2.70;;
36989;SDS011;22898;52.102;5.776;2023-05-07T04:28:32;4.80;;;2.92;;
36989;SDS011;22898;52.102;5.776;2023-05-07T04:30:59;4.05;;;2.95;;
36989;SDS011;22898;52.102;5.776;2023-05-07T04:33:24;7.75;;;3.65;;
36989;SDS011;22898;52.102;5.776;2023-05-07T04:35:50;4.15;;;2.90;;
36989;SDS011;22898;52.102;5.776;2023-05-07T04:38:15;4.22;;;2.83;;
36989;SDS011;22898;52.102;5.776;2023-05-07T04:40:41;7.43;;;3.65;;
36989;SDS011;22898;52.102;5.776;2023-05-07T04:43:07;4.22;;;2.67;;
36989;SDS011;22898;52.102;5.776;2023-05-07T04:45:34;4.40;;;3.20;;
36989;SDS011;22898;52.102;5.776;2023-05-07T04:48:00;3.42;;;2.80;;
36989;SDS011;22898;52.102;5.776;2023-05-07T04:50:25;3.97;;;3.08;;
36989;SDS011;22898;52.102;5.776;2023-05-07T04:52:51;4.20;;;3.58;;
36989;SDS011;22898;52.102;5.776;2023-05-07T04:55:17;4.80;;;3.08;;
36989;SDS011;22898;52.102;5.776;2023-05-07T04:57:42;5.28;;;3.90;;
36989;SDS011;22898;52.102;5.776;2023-05-07T05:00:08;5.80;;;3.30;;
36989;SDS011;22898;52.102;5.776;2023-05-07T05:02:34;5.88;;;4.07;;
36989;SDS011;22898;52.102;5.776;2023-05-07T05:05:00;4.50;;;3.08;;
36989;SDS011;22898;52.102;5.776;2023-05-07T05:07:29;5.65;;;4.18;;
36989;SDS011;22898;52.102;5.776;2023-05-07T05:09:54;5.90;;;3.20;;
36989;SDS011;22898;52.102;5.776;2023-05-07T05:12:20;3.03;;;2.40;;
36989;SDS011;22898;52.102;5.776;2023-05-07T05:14:46;4.75;;;3.17;;
36989;SDS011;22898;52.102;5.776;2023-05-07T05:17:12;4.93;;;3.20;;
36989;SDS011;22898;52.102;5.776;2023-05-07T05:19:37;4.05;;;3.15;;
36989;SDS011;22898;52.102;5.776;2023-05-07T05:22:03;4.55;;;3.55;;
36989;SDS011;22898;52.102;5.776;2023-05-07T05:24:30;5.20;;;3.80;;
36989;SDS011;22898;52.102;5.776;2023-05-07T05:26:56;4.05;;;2.95;;
36989;SDS011;22898;52.102;5.776;2023-05-07T05:29:22;7.78;;;3.33;;
36989;SDS011;22898;52.102;5.776;2023-05-07T05:31:47;4.78;;;2.92;;
36989;SDS011;22898;52.102;5.776;2023-05-07T05:34:13;5.53;;;3.63;;
36989;SDS011;22898;52.102;5.776;2023-05-07T05:36:38;4.90;;;3.08;;
36989;SDS011;22898;52.102;5.776;2023-05-07T05:39:04;4.97;;;3.10;;
36989;SDS011;22898;52.102;5.776;2023-05-07T05:41:30;3.03;;;2.33;;
36989;SDS011;22898;52.102;5.776;2023-05-07T05:43:56;4.43;;;3.05;;
36989;SDS011;22898;52.102;5.776;2023-05-07T05:46:22;6.20;;;3.78;;
36989;SDS011;22898;52.102;5.776;2023-05-07T05:48:47;5.82;;;3.30;;
36989;SDS011;22898;52.102;5.776;2023-05-07T05:51:13;5.18;;;3.83;;
36989;SDS011;22898;52.102;5.776;2023-05-07T05:53:38;5.05;;;3.47;;
36989;SDS011;22898;52.102;5.776;2023-05-07T05:56:04;5.20;;;3.55;;
36989;SDS011;22898;52.102;5.776;2023-05-07T05:58:30;2.92;;;2.55;;
36989;SDS011;22898;52.102;5.776;2023-05-07T06:00:56;5.10;;;2.65;;
36989;SDS011;22898;52.102;5.776;2023-05-07T06:03:23;4.63;;;3.63;;
36989;SDS011;22898;52.102;5.776;2023-05-07T06:05:48;4.78;;;3.05;;
36989;SDS011;22898;52.102;5.776;2023-05-07T06:08:14;3.80;;;3.05;;
36989;SDS011;22898;52.102;5.776;2023-05-07T06:10:39;5.50;;;3.42;;
36989;SDS011;22898;52.102;5.776;2023-05-07T06:13:05;4.60;;;3.22;;
36989;SDS011;22898;52.102;5.776;2023-05-07T06:15:31;8.63;;;3.55;;
36989;SDS011;22898;52.102;5.776;2023-05-07T06:17:56;5.32;;;4.40;;
36989;SDS011;22898;52.102;5.776;2023-05-07T06:20:22;7.20;;;3.47;;
36989;SDS011;22898;52.102;5.776;2023-05-07T06:22:48;7.32;;;4.55;;
36989;SDS011;22898;52.102;5.776;2023-05-07T06:25:14;4.18;;;3.17;;
36989;SDS011;22898;52.102;5.776;2023-05-07T06:27:39;4.07;;;3.03;;
36989;SDS011;22898;52.102;5.776;2023-05-07T06:30:05;5.57;;;3.88;;
36989;SDS011;22898;52.102;5.776;2023-05-07T06:32:31;5.35;;;3.95;;
36989;SDS011;22898;52.102;5.776;2023-05-07T06:34:57;4.57;;;3.55;;
36989;SDS011;22898;52.102;5.776;2023-05-07T06:37:23;5.25;;;3.78;;
36989;SDS011;22898;52.102;5.776;2023-05-07T06:39:48;7.95;;;4.07;;
36989;SDS011;22898;52.102;5.776;2023-05-07T06:42:14;6.35;;;4.30;;
36989;SDS011;22898;52.102;5.776;2023-05-07T06:44:39;6.22;;;4.20;;
36989;SDS011;22898;52.102;5.776;2023-05-07T06:47:05;6.78;;;4.13;;
36989;SDS011;22898;52.102;5.776;2023-05-07T06:49:30;4.50;;;3.08;;
36989;SDS011;22898;52.102;5.776;2023-05-07T06:51:56;6.55;;;3.33;;
36989;SDS011;22898;52.102;5.776;2023-05-07T06:54:22;5.03;;;3.50;;
36989;SDS011;22898;52.102;5.776;2023-05-07T06:56:48;5.25;;;4.22;;
36989;SDS011;22898;52.102;5.776;2023-05-07T06:59:13;4.28;;;3.25;;
36989;SDS011;22898;52.102;5.776;2023-05-07T07:01:39;4.13;;;3.40;;
36989;SDS011;22898;52.102;5.776;2023-05-07T07:04:05;6.75;;;4.85;;
36989;SDS011;22898;52.102;5.776;2023-05-07T07:06:30;4.97;;;3.70;;
36989;SDS011;22898;52.102;5.776;2023-05-07T07:08:57;5.72;;;3.60;;
36989;SDS011;22898;52.102;5.776;2023-05-07T07:11:23;4.72;;;3.70;;
36989;SDS011;22898;52.102;5.776;2023-05-07T07:13:48;5.22;;;3.58;;
36989;SDS011;22898;52.102;5.776;2023-05-07T07:16:15;5.43;;;4.07;;
36989;SDS011;22898;52.102;5.776;2023-05-07T07:18:41;7.40;;;4.53;;
36989;SDS011;22898;52.102;5.776;2023-05-07T07:21:06;5.85;;;3.65;;
36989;SDS011;22898;52.102;5.776;2023-05-07T07:23:32;7.05;;;4.55;;
36989;SDS011;22898;52.102;5.776;2023-05-07T07:25:58;4.82;;;3.63;;
36989;SDS011;22898;52.102;5.776;2023-05-07T07:28:23;5.85;;;3.85;;
36989;SDS011;22898;52.102;5.776;2023-05-07T07:30:49;4.32;;;3.63;;
36989;SDS011;22898;52.102;5.776;2023-05-07T07:33:14;6.07;;;3.88;;
36989;SDS011;22898;52.102;5.776;2023-05-07T07:35:40;6.85;;;4.65;;
36989;SDS011;22898;52.102;5.776;2023-05-07T07:38:06;5.85;;;3.88;;
36989;SDS011;22898;52.102;5.776;2023-05-07T07:40:34;7.13;;;4.55;;
36989;SDS011;22898;52.102;5.776;2023-05-07T07:42:59;7.07;;;4.85;;
36989;SDS011;22898;52.102;5.776;2023-05-07T07:45:26;5.65;;;3.85;;
36989;SDS011;22898;52.102;5.776;2023-05-07T07:47:51;8.70;;;4.60;;
36989;SDS011;22898;52.102;5.776;2023-05-07T07:50:17;5.45;;;4.15;;
36989;SDS011;22898;52.102;5.776;2023-05-07T07:52:43;5.75;;;3.95;;
36989;SDS011;22898;52.102;5.776;2023-05-07T07:55:09;6.72;;;5.05;;
36989;SDS011;22898;52.102;5.776;2023-05-07T07:57:35;7.07;;;4.78;;
36989;SDS011;22898;52.102;5.776;2023-05-07T08:00:00;6.63;;;4.22;;
36989;SDS011;22898;52.102;5.776;2023-05-07T08:02:26;8.15;;;3.97;;
36989;SDS011;22898;52.102;5.776;2023-05-07T08:04:51;5.57;;;3.90;;
36989;SDS011;22898;52.102;5.776;2023-05-07T08:07:17;7.50;;;4.72;;
36989;SDS011;22898;52.102;5.776;2023-05-07T08:09:45;5.93;;;3.63;;
36989;SDS011;22898;52.102;5.776;2023-05-07T08:12:11;4.93;;;3.55;;
36989;SDS011;22898;52.102;5.776;2023-05-07T08:14:36;6.15;;;4.68;;
36989;SDS011;22898;52.102;5.776;2023-05-07T08:17:02;9.20;;;5.15;;
36989;SDS011;22898;52.102;5.776;2023-05-07T08:19:28;7.30;;;4.22;;
36989;SDS011;22898;52.102;5.776;2023-05-07T08:21:53;11.50;;;4.20;;
36989;SDS011;22898;52.102;5.776;2023-05-07T08:24:20;12.10;;;4.35;;
36989;SDS011;22898;52.102;5.776;2023-05-07T08:26:45;7.28;;;4.30;;
36989;SDS011;22898;52.102;5.776;2023-05-07T08:29:11;9.13;;;4.97;;
36989;SDS011;22898;52.102;5.776;2023-05-07T08:31:37;6.82;;;3.67;;
36989;SDS011;22898;52.102;5.776;2023-05-07T08:34:04;6.47;;;4.13;;
36989;SDS011;22898;52.102;5.776;2023-05-07T08:36:31;5.45;;;3.53;;
36989;SDS011;22898;52.102;5.776;2023-05-07T08:38:57;6.43;;;3.80;;
36989;SDS011;22898;52.102;5.776;2023-05-07T08:41:22;6.15;;;4.43;;
36989;SDS011;22898;52.102;5.776;2023-05-07T08:43:48;6.90;;;4.50;;
36989;SDS011;22898;52.102;5.776;2023-05-07T08:46:19;5.28;;;3.78;;
36989;SDS011;22898;52.102;5.776;2023-05-07T08:48:49;6.95;;;5.03;;
36989;SDS011;22898;52.102;5.776;2023-05-07T08:51:16;6.05;;;4.50;;
36989;SDS011;22898;52.102;5.776;2023-05-07T08:53:43;6.63;;;4.80;;
36989;SDS011;22898;52.102;5.776;2023-05-07T08:56:09;6.90;;;4.15;;
36989;SDS011;22898;52.102;5.776;2023-05-07T08:58:36;5.70;;;4.07;;
36989;SDS011;22898;52.102;5.776;2023-05-07T09:01:14;7.28;;;4.55;;
36989;SDS011;22898;52.102;5.776;2023-05-07T09:03:41;7.93;;;5.03;;
36989;SDS011;22898;52.102;5.776;2023-05-07T09:06:10;6.50;;;4.63;;
36989;SDS011;22898;52.102;5.776;2023-05-07T09:08:36;7.03;;;4.75;;
36989;SDS011;22898;52.102;5.776;2023-05-07T09:11:02;4.45;;;3.38;;
36989;SDS011;22898;52.102;5.776;2023-05-07T09:13:28;5.57;;;3.70;;
36989;SDS011;22898;52.102;5.776;2023-05-07T09:15:54;7.15;;;4.78;;
36989;SDS011;22898;52.102;5.776;2023-05-07T09:18:20;7.93;;;4.85;;
36989;SDS011;22898;52.102;5.776;2023-05-07T09:20:46;7.43;;;3.92;;
36989;SDS011;22898;52.102;5.776;2023-05-07T09:23:11;6.43;;;4.20;;
36989;SDS011;22898;52.102;5.776;2023-05-07T09:25:37;8.45;;;4.35;;
36989;SDS011;22898;52.102;5.776;2023-05-07T09:28:03;9.90;;;4.38;;
36989;SDS011;22898;52.102;5.776;2023-05-07T09:30:35;5.78;;;4.25;;
36989;SDS011;22898;52.102;5.776;2023-05-07T09:33:02;7.35;;;4.88;;
36989;SDS011;22898;52.102;5.776;2023-05-07T09:35:29;4.70;;;3.60;;
36989;SDS011;22898;52.102;5.776;2023-05-07T09:37:59;5.15;;;3.90;;
36989;SDS011;22898;52.102;5.776;2023-05-07T09:40:26;5.90;;;4.05;;
36989;SDS011;22898;52.102;5.776;2023-05-07T09:42:53;5.90;;;3.83;;
36989;SDS011;22898;52.102;5.776;2023-05-07T09:45:26;7.20;;;4.45;;
36989;SDS011;22898;52.102;5.776;2023-05-07T09:47:56;4.70;;;3.30;;
36989;SDS011;22898;52.102;5.776;2023-05-07T09:50:26;6.35;;;4.50;;
36989;SDS011;22898;52.102;5.776;2023-05-07T09:53:00;6.20;;;3.92;;
36989;SDS011;22898;52.102;5.776;2023-05-07T09:55:28;5.57;;;3.75;;
36989;SDS011;22898;52.102;5.776;2023-05-07T09:57:53;8.05;;;3.65;;
36989;SDS011;22898;52.102;5.776;2023-05-07T10:00:20;5.72;;;3.40;;
36989;SDS011;22898;52.102;5.776;2023-05-07T10:02:51;5.25;;;3.55;;
36989;SDS011;22898;52.102;5.776;2023-05-07T10:05:18;4.43;;;2.70;;
36989;SDS011;22898;52.102;5.776;2023-05-07T10:07:47;4.53;;;3.28;;
36989;SDS011;22898;52.102;5.776;2023-05-07T10:10:14;4.05;;;3.25;;
36989;SDS011;22898;52.102;5.776;2023-05-07T10:12:42;9.98;;;4.50;;
36989;SDS011;22898;52.102;5.776;2023-05-07T10:15:12;5.10;;;3.45;;
36989;SDS011;22898;52.102;5.776;2023-05-07T10:17:39;4.85;;;3.15;;
36989;SDS011;22898;52.102;5.776;2023-05-07T10:20:05;6.25;;;3.17;;
36989;SDS011;22898;52.102;5.776;2023-05-07T10:22:33;4.03;;;2.80;;
36989;SDS011;22898;52.102;5.776;2023-05-07T10:25:05;5.18;;;3.85;;
36989;SDS011;22898;52.102;5.776;2023-05-07T10:27:38;3.92;;;2.97;;
36989;SDS011;22898;52.102;5.776;2023-05-07T10:33:19;4.63;;;3.22;;
36989;SDS011;22898;52.102;5.776;2023-05-07T10:35:48;3.45;;;2.25;;
36989;SDS011;22898;52.102;5.776;2023-05-07T10:38:14;4.88;;;2.42;;
36989;SDS011;22898;52.102;5.776;2023-05-07T10:40:40;6.03;;;2.35;;
36989;SDS011;22898;52.102;5.776;2023-05-07T10:43:06;4.68;;;2.70;;
36989;SDS011;22898;52.102;5.776;2023-05-07T10:45:32;5.20;;;2.80;;
36989;SDS011;22898;52.102;5.776;2023-05-07T10:50:36;3.15;;;2.38;;
36989;SDS011;22898;52.102;5.776;2023-05-07T10:55:47;4.80;;;2.40;;
36989;SDS011;22898;52.102;5.776;2023-05-07T10:58:24;4.40;;;2.92;;
36989;SDS011;22898;52.102;5.776;2023-05-07T11:00:57;3.95;;;2.72;;
36989;SDS011;22898;52.102;5.776;2023-05-07T11:03:27;4.10;;;2.38;;
36989;SDS011;22898;52.102;5.776;2023-05-07T11:06:10;4.97;;;2.67;;
36989;SDS011;22898;52.102;5.776;2023-05-07T11:08:52;5.20;;;2.88;;
36989;SDS011;22898;52.102;5.776;2023-05-07T11:11:18;4.13;;;2.67;;
36989;SDS011;22898;52.102;5.776;2023-05-07T11:13:47;5.22;;;2.65;;
36989;SDS011;22898;52.102;5.776;2023-05-07T11:16:18;5.07;;;3.15;;
36989;SDS011;22898;52.102;5.776;2023-05-07T11:18:48;3.85;;;2.72;;
36989;SDS011;22898;52.102;5.776;2023-05-07T11:24:00;4.57;;;2.70;;
36989;SDS011;22898;52.102;5.776;2023-05-07T11:26:27;4.85;;;2.80;;
36989;SDS011;22898;52.102;5.776;2023-05-07T11:28:55;4.53;;;2.83;;
36989;SDS011;22898;52.102;5.776;2023-05-07T11:31:22;6.45;;;3.03;;
36989;SDS011;22898;52.102;5.776;2023-05-07T11:33:49;3.67;;;2.35;;
36989;SDS011;22898;52.102;5.776;2023-05-07T11:36:15;4.25;;;2.65;;
36989;SDS011;22898;52.102;5.776;2023-05-07T11:38:41;8.52;;;2.67;;
36989;SDS011;22898;52.102;5.776;2023-05-07T11:41:07;3.63;;;2.03;;
36989;SDS011;22898;52.102;5.776;2023-05-07T11:43:33;3.83;;;2.30;;
36989;SDS011;22898;52.102;5.776;2023-05-07T11:46:10;2.58;;;1.73;;
36989;SDS011;22898;52.102;5.776;2023-05-07T11:48:36;3.17;;;2.38;;
36989;SDS011;22898;52.102;5.776;2023-05-07T11:51:06;2.22;;;2.03;;
36989;SDS011;22898;52.102;5.776;2023-05-07T11:53:38;2.78;;;1.73;;
36989;SDS011;22898;52.102;5.776;2023-05-07T11:58:35;5.75;;;2.28;;
36989;SDS011;22898;52.102;5.776;2023-05-07T12:01:01;3.47;;;1.98;;
36989;SDS011;22898;52.102;5.776;2023-05-07T12:03:26;2.15;;;1.73;;
36989;SDS011;22898;52.102;5.776;2023-05-07T12:05:52;2.58;;;1.83;;
36989;SDS011;22898;52.102;5.776;2023-05-07T12:08:18;3.35;;;2.03;;
36989;SDS011;22898;52.102;5.776;2023-05-07T12:10:46;3.50;;;2.28;;
36989;SDS011;22898;52.102;5.776;2023-05-07T12:13:16;2.05;;;1.60;;
36989;SDS011;22898;52.102;5.776;2023-05-07T12:15:43;5.80;;;2.60;;
36989;SDS011;22898;52.102;5.776;2023-05-07T12:18:09;2.88;;;2.00;;
36989;SDS011;22898;52.102;5.776;2023-05-07T12:20:36;3.88;;;2.05;;
36989;SDS011;22898;52.102;5.776;2023-05-07T12:23:02;5.03;;;2.92;;
36989;SDS011;22898;52.102;5.776;2023-05-07T12:25:39;4.00;;;2.72;;
36989;SDS011;22898;52.102;5.776;2023-05-07T12:28:12;4.85;;;2.90;;
36989;SDS011;22898;52.102;5.776;2023-05-07T12:30:45;3.95;;;2.58;;
36989;SDS011;22898;52.102;5.776;2023-05-07T12:33:12;4.63;;;2.63;;
36989;SDS011;22898;52.102;5.776;2023-05-07T12:35:42;4.82;;;2.78;;
36989;SDS011;22898;52.102;5.776;2023-05-07T12:38:12;4.97;;;2.90;;
36989;SDS011;22898;52.102;5.776;2023-05-07T12:40:42;4.60;;;3.10;;
36989;SDS011;22898;52.102;5.776;2023-05-07T12:43:17;4.82;;;2.80;;
36989;SDS011;22898;52.102;5.776;2023-05-07T12:45:47;5.25;;;3.90;;
36989;SDS011;22898;52.102;5.776;2023-05-07T12:48:15;5.95;;;3.08;;
36989;SDS011;22898;52.102;5.776;2023-05-07T12:50:40;5.38;;;3.67;;
36989;SDS011;22898;52.102;5.776;2023-05-07T12:53:07;4.97;;;3.28;;
36989;SDS011;22898;52.102;5.776;2023-05-07T12:55:43;7.47;;;4.03;;
36989;SDS011;22898;52.102;5.776;2023-05-07T12:58:26;5.45;;;3.63;;
36989;SDS011;22898;52.102;5.776;2023-05-07T13:00:53;6.03;;;4.05;;
36989;SDS011;22898;52.102;5.776;2023-05-07T13:03:29;5.03;;;3.50;;
36989;SDS011;22898;52.102;5.776;2023-05-07T13:06:00;8.20;;;4.72;;
36989;SDS011;22898;52.102;5.776;2023-05-07T13:08:34;5.70;;;2.95;;
36989;SDS011;22898;52.102;5.776;2023-05-07T13:11:02;5.30;;;3.80;;
36989;SDS011;22898;52.102;5.776;2023-05-07T13:13:33;6.35;;;4.47;;
36989;SDS011;22898;52.102;5.776;2023-05-07T13:16:03;4.95;;;3.15;;
36989;SDS011;22898;52.102;5.776;2023-05-07T13:18:31;5.10;;;2.95;;
36989;SDS011;22898;52.102;5.776;2023-05-07T13:20:57;5.88;;;3.75;;
36989;SDS011;22898;52.102;5.776;2023-05-07T13:23:24;5.80;;;3.95;;
36989;SDS011;22898;52.102;5.776;2023-05-07T13:25:50;5.00;;;3.10;;
36989;SDS011;22898;52.102;5.776;2023-05-07T13:28:15;6.80;;;4.35;;
36989;SDS011;22898;52.102;5.776;2023-05-07T13:30:41;6.82;;;4.32;;
36989;SDS011;22898;52.102;5.776;2023-05-07T13:33:07;6.68;;;3.80;;
36989;SDS011;22898;52.102;5.776;2023-05-07T13:35:33;5.88;;;3.92;;
36989;SDS011;22898;52.102;5.776;2023-05-07T13:37:59;7.13;;;4.05;;
36989;SDS011;22898;52.102;5.776;2023-05-07T13:40:24;6.10;;;4.25;;
36989;SDS011;22898;52.102;5.776;2023-05-07T13:42:50;5.85;;;4.40;;
36989;SDS011;22898;52.102;5.776;2023-05-07T13:45:17;8.30;;;5.15;;
36989;SDS011;22898;52.102;5.776;2023-05-07T13:47:43;5.07;;;3.58;;
36989;SDS011;22898;52.102;5.776;2023-05-07T13:50:09;7.65;;;4.55;;
36989;SDS011;22898;52.102;5.776;2023-05-07T13:52:36;5.55;;;3.80;;
36989;SDS011;22898;52.102;5.776;2023-05-07T13:55:02;5.82;;;3.53;;
36989;SDS011;22898;52.102;5.776;2023-05-07T13:57:29;5.13;;;3.63;;
36989;SDS011;22898;52.102;5.776;2023-05-07T13:59:55;6.03;;;4.15;;
36989;SDS011;22898;52.102;5.776;2023-05-07T14:02:20;10.60;;;5.15;;
36989;SDS011;22898;52.102;5.776;2023-05-07T14:04:46;5.45;;;3.95;;
36989;SDS011;22898;52.102;5.776;2023-05-07T14:07:11;6.72;;;4.72;;
36989;SDS011;22898;52.102;5.776;2023-05-07T14:09:37;6.70;;;4.93;;
36989;SDS011;22898;52.102;5.776;2023-05-07T14:12:04;5.63;;;4.10;;
36989;SDS011;22898;52.102;5.776;2023-05-07T14:14:30;5.70;;;4.05;;
36989;SDS011;22898;52.102;5.776;2023-05-07T14:16:55;8.90;;;4.60;;
36989;SDS011;22898;52.102;5.776;2023-05-07T14:19:21;8.80;;;4.60;;
36989;SDS011;22898;52.102;5.776;2023-05-07T14:21:47;8.02;;;5.25;;
36989;SDS011;22898;52.102;5.776;2023-05-07T14:24:13;7.47;;;4.85;;
36989;SDS011;22898;52.102;5.776;2023-05-07T14:26:39;7.68;;;5.47;;
36989;SDS011;22898;52.102;5.776;2023-05-07T14:29:04;6.97;;;4.28;;
36989;SDS011;22898;52.102;5.776;2023-05-07T14:31:30;6.57;;;4.22;;
36989;SDS011;22898;52.102;5.776;2023-05-07T14:33:56;7.63;;;5.07;;
36989;SDS011;22898;52.102;5.776;2023-05-07T14:36:23;7.85;;;4.65;;
36989;SDS011;22898;52.102;5.776;2023-05-07T14:38:51;6.70;;;4.22;;
36989;SDS011;22898;52.102;5.776;2023-05-07T14:41:17;7.13;;;4.53;;
36989;SDS011;22898;52.102;5.776;2023-05-07T14:43:43;7.63;;;4.65;;
36989;SDS011;22898;52.102;5.776;2023-05-07T14:46:14;8.18;;;4.13;;
36989;SDS011;22898;52.102;5.776;2023-05-07T14:48:46;7.00;;;3.97;;
36989;SDS011;22898;52.102;5.776;2023-05-07T14:51:12;6.00;;;4.15;;
36989;SDS011;22898;52.102;5.776;2023-05-07T14:53:38;6.10;;;2.83;;
36989;SDS011;22898;52.102;5.776;2023-05-07T14:56:05;4.57;;;3.40;;
36989;SDS011;22898;52.102;5.776;2023-05-07T14:58:31;9.57;;;3.88;;